Tiempo atmosférico en la estación meteorológica de Madrid, Ciudad Universitaria, Madrid (664 m.)



Fecha
DESCASC
Temp. máxima en grados centígrados (hora)
DESCASC
Temp. mínima en grados centígrados (hora)
DESCASC
Temp. media en grados centígrados
DESCASC
Racha de viento máxima en m/sg (hora)
DESCASC
Velocidad máxima media en intervalos de 10 minutos(hora)
DESCASC
Precipitaciones diarias en mm
DESCASC
Precipitaciones de 00:00 a 06:00 en mm
DESCASC
Precipitaciones de 06:00 a 12:00 en mm
DESCASC
Precipitaciones de 12:00 a 18:00 en mm
DESCASC
Precipitaciones de 18:00 a 24:00 en mm
DESCASC
16-01-2020 13.2 (16:40) 6.4 (02:50) 9.8 -- (--) -- (--) 0 0 0 0 0
15-01-2020 8.1 (16:50) 1.4 (07:40) 4.8 -- (--) -- (--) 0 0 0 0 0
14-01-2020 9.2 (15:40) -4.4 (08:20) 2.4 -- (--) -- (--) 0 0 0 0 0
13-01-2020 9 (16:20) -4 (08:40) 2.5 -- (--) -- (--) 0 0 0 0 0
12-01-2020 11.6 (16:30) -4.7 (-00:0) 3.5 -- (--) -- (--) 0 0 0 0 0
11-01-2020 12.5 (16:10) -3.5 (-00:0) 4.5 -- (--) -- (--) 0 0 0 0 0
10-01-2020 12 (15:40) 0.5 (00:00) 6.3 -- (--) -- (--) 0 0 0 0 0
09-01-2020 12.7 (15:30) 0 (00:00) 6.3 -- (--) -- (--) 0 0 0 0 0
08-01-2020 16 (16:40) -1.4 (-00:0) 7.3 -- (--) -- (--) 0 0 0 0 0
07-01-2020 15.1 (16:40) -2.3 (-00:0) 6.4 -- (--) -- (--) 0 0 0 0 0
06-01-2020 13.7 (16:00) -2.1 (-00:0) 5.8 -- (--) -- (--) 0 0 0 0 0
05-01-2020 13.3 (16:30) -3.1 (-00:0) 5.1 -- (--) -- (--) 0 0 0 0 0
04-01-2020 11.8 (15:20) -2.6 (-00:0) 4.6 -- (--) -- (--) 0 0 0 0 0
03-01-2020 6.6 (16:30) -0.9 (-00:0) 2.8 -- (--) -- (--) 0 0 0 0 0
02-01-2020 12.1 (16:10) -2.1 (-00:0) 5 -- (--) -- (--) 0 0 0 0 0
01-01-2020 13.7 (15:50) -2 (-00:0) 5.8 -- (--) -- (--) 0 0 0 0 0
31-12-2019 13.4 (16:00) -1.5 (-00:0) 5.9 -- (--) -- (--) 0 0 0 0 0
30-12-2019 13.4 (15:50) -2 (-00:0) 5.7 -- (--) -- (--) 0 0 0 0 0
29-12-2019 15.7 (16:30) -1.9 (-00:0) 6.9 -- (--) -- (--) 0 0 0 0 0
28-12-2019 16.8 (15:30) -2.3 (-00:0) 7.2 -- (--) -- (--) 0 0 0 0 0
27-12-2019 15.6 (16:20) -0.4 (00:00) 7.6 -- (--) -- (--) 0 0 0 0 0
26-12-2019 15.8 (16:40) 3 (00:00) 9.4 -- (--) -- (--) 0 0 0 0 0
25-12-2019 17.1 (15:40) 2.3 (00:00) 9.7 -- (--) -- (--) 0 0 0 0 0
24-12-2019 14.8 (14:50) 2.5 (00:00) 8.7 -- (--) -- (--) 0 0 0 0 0
23-12-2019 13.6 (14:30) 5.6 (00:00) 9.6 -- (--) -- (--) 0 0 0 0 0
22-12-2019 13.2 (14:50) 8.6 (00:00) 10.9 16.67 (12:50) 8.61 (13:20) 0 0 0 0 0
21-12-2019 16.2 (14:00) 10.5 (00:00) 13.4 22.5 (14:20) 10.28 (14:20) 1.6 0.1 1.4 0.1 0
20-12-2019 13.4 (12:20) 10.4 (00:00) 11.9 17.5 (05:30) 8.06 (04:40) 23.5 13.9 0 4.4 5.2

Gráficas

Temp. máximas Temp. mínimas Temp. medias Precipitaciones Rachas de viento máximas Velocidades máximas media en intervalos de 10 minutos

Datos horarios

Fecha y hora oficial Temperatura (ºC) Velocidad del viento (km/h) Dirección del viento Racha (km/h) Dirección de racha Precipitación (mm) Presión (hPa) Tendencia (hPa) Humedad (%)
2020-01-18 23:00:00 6.6 -- -- 22 Noroeste 0 -- -- 87
2020-01-18 22:00:00 7 -- -- 19 Sudoeste 0.1 -- -- 87
2020-01-18 21:00:00 7.1 -- -- 17 Sudoeste 0 -- -- 87
2020-01-18 20:00:00 7.1 -- -- 15 Sudoeste 0.1 -- -- 87
2020-01-18 19:00:00 7.9 -- -- 15 Sudoeste 0 -- -- 87
2020-01-18 18:00:00 7.9 -- -- 16 Sudoeste 0 -- -- 87
2020-01-18 17:00:00 7.6 -- -- 4 Sudoeste 0 -- -- 87
2020-01-18 16:00:00 7.2 -- -- 3 Sudoeste 0.1 -- -- 86
2020-01-18 15:00:00 6.8 -- -- -- -- 0.1 -- -- 86
2020-01-18 14:00:00 6.8 -- -- -- -- 0 -- -- 86
2020-01-18 13:00:00 6.8 -- -- 8 Sur 0.3 -- -- 86
2020-01-18 12:00:00 6.4 -- -- 8 Sudoeste 0.1 -- -- 87
2020-01-18 11:00:00 5.7 -- -- -- -- 0.1 -- -- 87
2020-01-18 10:00:00 5 -- -- -- -- 0.3 -- -- 86
2020-01-18 09:00:00 4.5 -- -- 0 Calma 0.1 -- -- 86
2020-01-18 08:00:00 5.4 -- -- 13 Sur 0.3 -- -- 85
2020-01-18 07:00:00 4.3 -- -- 11 Oeste 0.2 -- -- 79
2020-01-18 06:00:00 4.9 -- -- 14 Este 0 -- -- 79
2020-01-18 05:00:00 3.8 -- -- -- -- 0 -- -- 81
2020-01-18 04:00:00 3.8 -- -- -- -- 0 -- -- 81
2020-01-18 03:00:00 4.1 -- -- -- -- 0 -- -- 81
2020-01-18 02:00:00 4.3 -- -- -- -- 0 -- -- 81
2020-01-18 01:00:00 4.7 -- -- 7 Este 0 -- -- 79
2020-01-18 00:00:00 5.5 -- -- -- -- 0 -- -- 77
2020-01-17 23:00:00 6.1 -- -- 6 Sudeste 0 -- -- 76
2020-01-17 22:00:00 6.2 -- -- 8 Oeste 0 -- -- 78
2020-01-17 21:00:00 6.4 -- -- 8 Oeste 0 -- -- 76
2020-01-17 20:00:00 7.9 -- -- 10 Sudoeste 0 -- -- 70
2020-01-17 19:00:00 9.1 -- -- 12 Sudoeste 0 -- -- 62
2020-01-17 18:00:00 10.7 -- -- 22 Oeste 0 -- -- 53
2020-01-17 17:00:00 12.2 -- -- 26 Sudoeste 0 -- -- 48
2020-01-17 16:00:00 13.1 -- -- 24 Oeste 0 -- -- 46
2020-01-17 15:00:00 12.8 -- -- 22 Sudoeste 0 -- -- 47
2020-01-17 14:00:00 11.1 -- -- 23 Oeste 0 -- -- 57
2020-01-17 13:00:00 10.3 -- -- 26 Oeste 0 -- -- 66
2020-01-17 12:00:00 9.9 -- -- 32 Oeste 0 -- -- 66
2020-01-17 11:00:00 8.1 -- -- 22 Sudoeste 0 -- -- 84
2020-01-17 10:00:00 6.3 -- -- 12 Oeste 0 -- -- 85
2020-01-17 09:00:00 5.3 -- -- 17 Oeste 0 -- -- 84
2020-01-17 08:00:00 4.8 -- -- 11 Sur 0 -- -- 81
2020-01-17 07:00:00 5.5 -- -- 5 Sudoeste 0 -- -- 76
2020-01-17 06:00:00 6.3 -- -- 9 Sudoeste 0 -- -- 72
2020-01-17 05:00:00 6.8 -- -- 12 Sudoeste 0 -- -- 69
2020-01-17 04:00:00 7.1 -- -- 19 Sudoeste 0 -- -- 65
2020-01-17 03:00:00 7.5 -- -- 17 Oeste 0 -- -- 62
2020-01-17 02:00:00 7.9 -- -- 18 Oeste 0 -- -- 60
2020-01-17 01:00:00 7.7 -- -- 20 Oeste 0 -- -- 61
2020-01-17 00:00:00 8.6 -- -- 10 Sur 0 -- -- 52
2020-01-16 23:00:00 7.5 -- -- 9 Sudoeste 0 -- -- 60
2020-01-16 22:00:00 8.3 -- -- 11 Sur 0 -- -- 61
2020-01-16 21:00:00 7.9 -- -- -- -- 0 -- -- 76
2020-01-16 20:00:00 7.8 -- -- -- -- 0 -- -- 77
2020-01-16 19:00:00 8.2 -- -- 5 Nordeste 0 -- -- 74
2020-01-16 18:00:00 10.1 -- -- 11 Oeste 0 -- -- 59
2020-01-16 17:00:00 12.3 -- -- 14 Sudoeste 0 -- -- 50
2020-01-16 16:00:00 12.7 -- -- 14 Sudoeste 0 -- -- 56
2020-01-16 15:00:00 11.7 -- -- 8 Sudoeste 0 -- -- 63
2020-01-16 14:00:00 9.8 -- -- -- -- 0 -- -- 72
2020-01-16 13:00:00 8.9 -- -- 7 Oeste 0 -- -- 75
2020-01-16 12:00:00 8.4 -- -- -- -- 0 -- -- 78
2020-01-16 11:00:00 7.8 -- -- -- -- 0 -- -- 79
2020-01-16 10:00:00 7.6 -- -- 5 Este 0 -- -- 75
2020-01-16 09:00:00 7.1 -- -- 9 Este 0 -- -- 76
2020-01-16 08:00:00 6.7 -- -- -- -- 0 -- -- 76
2020-01-16 07:00:00 7 -- -- -- -- 0 -- -- 74
2020-01-16 06:00:00 6.9 -- -- -- -- 0 -- -- 74
2020-01-16 05:00:00 6.9 -- -- -- -- 0 -- -- 74
2020-01-16 04:00:00 6.9 -- -- 9 Este 0 -- -- 74
2020-01-16 03:00:00 6.4 -- -- 8 Este 0 -- -- 75
2020-01-16 02:00:00 6.7 -- -- -- -- 0 -- -- 75
2020-01-16 01:00:00 6.8 -- -- -- -- 0 -- -- 75
2020-01-16 00:00:00 6.8 -- -- 12 Este 0 -- -- 75
2020-01-15 23:00:00 6.6 -- -- -- -- 0 -- -- 75
2020-01-15 22:00:00 6.6 -- -- -- -- 0 -- -- 75
2020-01-15 21:00:00 6.8 -- -- -- -- 0 -- -- 74
2020-01-15 20:00:00 6.8 -- -- -- -- 0 -- -- 74
2020-01-15 19:00:00 6.8 -- -- -- -- 0 -- -- 73
2020-01-15 18:00:00 7.5 -- -- -- -- 0 -- -- 67
2020-01-15 17:00:00 7.8 -- -- -- -- 0 -- -- 66
2020-01-15 16:00:00 7.5 -- -- 7 Sudoeste 0 -- -- 65
2020-01-15 15:00:00 7.2 -- -- -- -- 0 -- -- 68
2020-01-15 14:00:00 6.6 -- -- -- -- 0 -- -- 71
2020-01-15 13:00:00 6.3 -- -- -- -- 0 -- -- 73
2020-01-15 12:00:00 5.2 -- -- -- -- 0 -- -- 77
2020-01-15 11:00:00 4.1 -- -- -- -- 0 -- -- 83
2020-01-15 10:00:00 3.5 -- -- -- -- 0 -- -- 86
2020-01-15 09:00:00 2 -- -- 6 Noroeste 0 -- -- 86
2020-01-15 08:00:00 1.7 -- -- -- -- 0 -- -- 84
2020-01-15 07:00:00 2 -- -- 8 Sur 0 -- -- 81
2020-01-15 06:00:00 3.5 -- -- 8 Sudeste 0 -- -- 81
2020-01-15 05:00:00 2.2 -- -- -- -- 0 -- -- 79
2020-01-15 04:00:00 3.5 -- -- -- -- 0 -- -- 76
2020-01-15 03:00:00 3.8 -- -- -- -- 0 -- -- 75
2020-01-15 02:00:00 3.8 -- -- -- -- 0 -- -- 75
2020-01-15 01:00:00 3.7 -- -- -- -- 0 -- -- 75
2020-01-15 00:00:00 3.6 -- -- -- -- 0 -- -- 75
2020-01-14 23:00:00 3.6 -- -- -- -- 0 -- -- 75
2020-01-14 22:00:00 3.5 -- -- -- -- 0 -- -- 76
2020-01-14 21:00:00 3.6 -- -- -- -- 0 -- -- 73
2020-01-14 20:00:00 4.8 -- -- -- -- 0 -- -- 72
2020-01-14 19:00:00 4.4 -- -- -- -- 0 -- -- 69
2020-01-14 18:00:00 6.6 -- -- 10 Oeste 0 -- -- 54
2020-01-14 17:00:00 8.8 -- -- 13 Oeste 0 -- -- 48
2020-01-14 16:00:00 8.6 -- -- 19 Sudoeste 0 -- -- 48
2020-01-14 15:00:00 8.3 -- -- 15 Oeste 0 -- -- 48
2020-01-14 14:00:00 7.5 -- -- 12 Oeste 0 -- -- 51
2020-01-14 13:00:00 5.9 -- -- -- -- 0 -- -- 54
2020-01-14 12:00:00 4.1 -- -- -- -- 0 -- -- 62
2020-01-14 11:00:00 1.5 -- -- -- -- 0 -- -- 75
2020-01-14 10:00:00 -1.7 -- -- -- -- 0 -- -- 87
2020-01-14 09:00:00 -4.3 -- -- -- -- 0 -- -- 87
2020-01-14 08:00:00 -4.2 -- -- -- -- 0 -- -- 87
2020-01-14 07:00:00 -3.5 -- -- -- -- 0 -- -- 87
2020-01-14 06:00:00 -3.2 -- -- -- -- 0 -- -- 87
2020-01-14 05:00:00 -3 -- -- -- -- 0 -- -- 87
2020-01-14 04:00:00 -2.6 -- -- -- -- 0 -- -- 86
2020-01-14 03:00:00 -2.3 -- -- -- -- 0 -- -- 86
2020-01-14 02:00:00 -1.7 -- -- -- -- 0 -- -- 85
2020-01-14 01:00:00 -0.9 -- -- -- -- 0 -- -- 84
2020-01-14 00:00:00 -0.2 -- -- -- -- 0 -- -- 81
2020-01-13 23:00:00 0.7 -- -- -- -- 0 -- -- 78
2020-01-13 22:00:00 1 -- -- -- -- 0 -- -- 75
2020-01-13 21:00:00 2 -- -- 3 Oeste 0 -- -- 68
2020-01-13 20:00:00 3.2 -- -- 4 Sudeste 0 -- -- 61
2020-01-13 19:00:00 5.5 -- -- 8 Sur 0 -- -- 52
2020-01-13 18:00:00 6.9 -- -- 12 Sudoeste 0 -- -- 48
2020-01-13 17:00:00 7.7 -- -- 21 Sudoeste 0 -- -- 46
2020-01-13 16:00:00 8.5 -- -- 10 Sudeste 0 -- -- 44
2020-01-13 15:00:00 7.8 -- -- 11 Sudoeste 0 -- -- 45
2020-01-13 14:00:00 6.9 -- -- 8 Sudoeste 0 -- -- 49
2020-01-13 13:00:00 5.4 -- -- 5 Oeste 0 -- -- 56
2020-01-13 12:00:00 2.2 -- -- -- -- 0 -- -- 69
2020-01-13 11:00:00 -0.3 -- -- -- -- 0 -- -- 84
2020-01-13 10:00:00 -2.4 -- -- -- -- 0 -- -- 86
2020-01-13 09:00:00 -3.7 -- -- -- -- 0 -- -- 86
2020-01-13 08:00:00 -3.7 -- -- -- -- 0 -- -- 86
2020-01-13 07:00:00 -3.4 -- -- -- -- 0 -- -- 86
2020-01-13 06:00:00 -3 -- -- -- -- 0 -- -- 86
2020-01-13 05:00:00 -3 -- -- -- -- 0 -- -- 86
2020-01-13 04:00:00 -2.6 -- -- -- -- 0 -- -- 85
2020-01-13 03:00:00 -2.4 -- -- -- -- 0 -- -- 85
2020-01-13 02:00:00 -1.7 -- -- -- -- 0 -- -- 83
2020-01-13 01:00:00 -1.3 -- -- -- -- 0 -- -- 83
2020-01-13 00:00:00 -0.8 -- -- -- -- 0 -- -- 80
2020-01-12 23:00:00 0 -- -- -- -- 0 -- -- 76
2020-01-12 22:00:00 1.2 -- -- -- -- 0 -- -- 73
2020-01-12 21:00:00 2.4 -- -- -- -- 0 -- -- 66
2020-01-12 20:00:00 3.2 -- -- -- -- 0 -- -- 60
2020-01-12 19:00:00 4.6 -- -- 4 Sudeste 0 -- -- 50
2020-01-12 18:00:00 8.7 -- -- -- -- 0 -- -- 35
2020-01-12 17:00:00 11 -- -- 6 Oeste 0 -- -- 29
2020-01-12 16:00:00 11.3 -- -- 9 Sudoeste 0 -- -- 30
2020-01-12 15:00:00 10.2 -- -- 3 Norte 0 -- -- 35
2020-01-12 14:00:00 8.9 -- -- 5 Noroeste 0 -- -- 38
2020-01-12 13:00:00 7.1 -- -- 4 Sudoeste 0 -- -- 42
2020-01-12 12:00:00 4.8 -- -- -- -- 0 -- -- 47
2020-01-12 11:00:00 2.2 -- -- -- -- 0 -- -- 59
2020-01-12 10:00:00 -1.9 -- -- -- -- 0 -- -- 84
2020-01-12 09:00:00 -4.6 -- -- -- -- 0 -- -- 85
2020-01-12 08:00:00 -4.4 -- -- -- -- 0 -- -- 85
2020-01-12 07:00:00 -3.8 -- -- -- -- 0 -- -- 85
2020-01-12 06:00:00 -3.6 -- -- -- -- 0 -- -- 85
2020-01-12 05:00:00 -3.1 -- -- -- -- 0 -- -- 85
2020-01-12 04:00:00 -2.9 -- -- -- -- 0 -- -- 83
2020-01-12 03:00:00 -2.5 -- -- -- -- 0 -- -- 81
2020-01-12 02:00:00 -1.6 -- -- -- -- 0 -- -- 81
2020-01-12 01:00:00 -1.3 -- -- -- -- 0 -- -- 76
2020-01-12 00:00:00 -0.3 -- -- -- -- 0 -- -- 72
2020-01-11 23:00:00 1.4 -- -- -- -- 0 -- -- 68
2020-01-11 22:00:00 2.1 -- -- -- -- 0 -- -- 63
2020-01-11 21:00:00 2.8 -- -- -- -- 0 -- -- 58
2020-01-11 20:00:00 4.2 -- -- 3 Sudoeste 0 -- -- 50
2020-01-11 19:00:00 5.1 -- -- 5 Sudoeste 0 -- -- 43
2020-01-11 18:00:00 9.9 -- -- 8 Sudoeste 0 -- -- 30
2020-01-11 17:00:00 12.2 -- -- 10 Sudoeste 0 -- -- 28
2020-01-11 16:00:00 12.4 -- -- 9 Oeste 0 -- -- 28
2020-01-11 15:00:00 11 -- -- 10 Este 0 -- -- 29
2020-01-11 14:00:00 9.9 -- -- 15 Este 0 -- -- 31
2020-01-11 13:00:00 9 -- -- 20 Este 0 -- -- 33
2020-01-11 12:00:00 7.6 -- -- 20 Este 0 -- -- 36
2020-01-11 11:00:00 5.3 -- -- 15 Este 0 -- -- 56
2020-01-11 10:00:00 -1.2 -- -- 16 Este 0 -- -- 84
2020-01-11 09:00:00 -3.2 -- -- 4 Norte 0 -- -- 84
2020-01-11 08:00:00 -2.8 -- -- 8 Norte 0 -- -- 84
2020-01-11 07:00:00 -2.5 -- -- -- -- 0 -- -- 84
2020-01-11 06:00:00 -2.4 -- -- -- -- 0 -- -- 82
2020-01-11 05:00:00 -2.3 -- -- -- -- 0 -- -- 79
2020-01-11 04:00:00 -1.5 -- -- 10 Noroeste 0 -- -- 76
2020-01-11 03:00:00 0.3 -- -- 12 Nordeste 0 -- -- 69
2020-01-11 02:00:00 1.3 -- -- -- -- 0 -- -- 71
2020-01-11 01:00:00 2.5 -- -- 12 Nordeste 0 -- -- 63
2020-01-11 00:00:00 4.3 -- -- 15 Nordeste 0 -- -- 57
2020-01-10 23:00:00 4.8 -- -- 18 Este 0 -- -- 53
2020-01-10 22:00:00 5.2 -- -- 15 Nordeste 0 -- -- 48
2020-01-10 21:00:00 5.9 -- -- 19 Nordeste 0 -- -- 44
2020-01-10 20:00:00 6.2 -- -- 19 Este 0 -- -- 44
2020-01-10 19:00:00 7.3 -- -- 22 Nordeste 0 -- -- 40
2020-01-10 18:00:00 8.8 -- -- 23 Nordeste 0 -- -- 37
2020-01-10 17:00:00 10.7 -- -- 25 Nordeste 0 -- -- 34
2020-01-10 16:00:00 11.3 -- -- 26 Nordeste 0 -- -- 33
2020-01-10 15:00:00 11.5 -- -- 26 Este 0 -- -- 33
2020-01-10 14:00:00 11.1 -- -- 31 Norte 0 -- -- 33
2020-01-10 13:00:00 11.3 -- -- 35 Nordeste 0 -- -- 35
2020-01-10 12:00:00 10.1 -- -- 24 Nordeste 0 -- -- 40
2020-01-10 11:00:00 7.7 -- -- 22 Nordeste 0 -- -- 56
2020-01-10 10:00:00 2.2 -- -- 8 Norte 0 -- -- 83
2020-01-10 09:00:00 0.6 -- -- 12 Nordeste 0 -- -- 82
2020-01-10 08:00:00 1.3 -- -- 8 Norte 0 -- -- 80
2020-01-10 07:00:00 1.9 -- -- -- -- 0 -- -- 75
2020-01-10 06:00:00 3 -- -- 8 Sudeste 0 -- -- 72
2020-01-10 05:00:00 3.1 -- -- -- -- 0 -- -- 69
2020-01-10 04:00:00 4.1 -- -- 9 Noroeste 0 -- -- 63
2020-01-10 03:00:00 5.4 -- -- 15 Noroeste 0 -- -- 59
2020-01-10 02:00:00 6.8 -- -- 26 Noroeste 0 -- -- 56
2020-01-10 01:00:00 8.6 -- -- 40 Noroeste 0 -- -- 56
2020-01-10 00:00:00 5.9 -- -- 21 Oeste 0 -- -- 70
2020-01-09 23:00:00 7 -- -- 19 Sudoeste 0 -- -- 69
2020-01-09 22:00:00 6.7 -- -- 10 Sur 0 -- -- 67
2020-01-09 21:00:00 8.1 -- -- 9 Sudoeste 0 -- -- 61
2020-01-09 20:00:00 8.6 -- -- 9 Sudoeste 0 -- -- 61
2020-01-09 19:00:00 7.9 -- -- 7 Sur 0 -- -- 57
2020-01-09 18:00:00 10.6 -- -- 8 Sur 0 -- -- 44
2020-01-09 17:00:00 12.2 -- -- 10 Sudeste 0 -- -- 41
2020-01-09 16:00:00 12.6 -- -- 13 Sur 0 -- -- 39
2020-01-09 15:00:00 12.2 -- -- 10 Sudoeste 0 -- -- 39
2020-01-09 14:00:00 11.5 -- -- 12 Sudoeste 0 -- -- 40
2020-01-09 13:00:00 11.2 -- -- 12 Sudoeste 0 -- -- 42
2020-01-09 12:00:00 9.9 -- -- 5 Sudoeste 0 -- -- 45
2020-01-09 11:00:00 6.7 -- -- -- -- 0 -- -- 62
2020-01-09 10:00:00 2.2 -- -- -- -- 0 -- -- 84
2020-01-09 09:00:00 0.5 -- -- -- -- 0 -- -- 85
2020-01-09 08:00:00 0.2 -- -- -- -- 0 -- -- 84
2020-01-09 07:00:00 0.2 -- -- -- -- 0 -- -- 83
2020-01-09 06:00:00 0.4 -- -- -- -- 0 -- -- 81
2020-01-09 05:00:00 0.7 -- -- -- -- 0 -- -- 80
2020-01-09 04:00:00 1 -- -- -- -- 0 -- -- 78
2020-01-09 03:00:00 1.3 -- -- -- -- 0 -- -- 75
2020-01-09 02:00:00 1.8 -- -- -- -- 0 -- -- 72
2020-01-09 01:00:00 2.2 -- -- -- -- 0 -- -- 68
2020-01-09 00:00:00 2.6 -- -- -- -- 0 -- -- 64
2020-01-08 23:00:00 3.7 -- -- -- -- 0 -- -- 58
2020-01-08 22:00:00 5 -- -- -- -- 0 -- -- 52
2020-01-08 21:00:00 5.5 -- -- -- -- 0 -- -- 47
2020-01-08 20:00:00 6.9 -- -- -- -- 0 -- -- 40
2020-01-08 19:00:00 7.7 -- -- -- -- 0 -- -- 37
2020-01-08 18:00:00 11.2 -- -- 7 Sudoeste 0 -- -- 30
2020-01-08 17:00:00 14.8 -- -- 9 Sudoeste 0 -- -- 25
2020-01-08 16:00:00 15.6 -- -- 8 Sudoeste 0 -- -- 24
2020-01-08 15:00:00 15 -- -- 11 Sudoeste 0 -- -- 26
2020-01-08 14:00:00 13.6 -- -- 5 Oeste 0 -- -- 31
2020-01-08 13:00:00 11.6 -- -- -- -- 0 -- -- 38
2020-01-08 12:00:00 8.3 -- -- -- -- 0 -- -- 45
2020-01-08 11:00:00 6.1 -- -- -- -- 0 -- -- 62
2020-01-08 10:00:00 1.7 -- -- -- -- 0 -- -- 86
2020-01-08 09:00:00 -0.9 -- -- -- -- 0 -- -- 86
2020-01-08 08:00:00 -1 -- -- -- -- 0 -- -- 86
2020-01-08 07:00:00 -1.2 -- -- -- -- 0 -- -- 86
2020-01-08 06:00:00 -1.1 -- -- -- -- 0 -- -- 86
2020-01-08 05:00:00 -0.7 -- -- -- -- 0 -- -- 85
2020-01-08 04:00:00 -0.5 -- -- -- -- 0 -- -- 85
2020-01-08 03:00:00 -0.2 -- -- -- -- 0 -- -- 84
2020-01-08 02:00:00 0.1 -- -- -- -- 0 -- -- 82
2020-01-08 01:00:00 0.9 -- -- -- -- 0 -- -- 81
2020-01-08 00:00:00 1.5 -- -- -- -- 0 -- -- 78
2020-01-07 23:00:00 2.5 -- -- -- -- 0 -- -- 76
2020-01-07 22:00:00 3.4 -- -- -- -- 0 -- -- 73
2020-01-07 21:00:00 4.6 -- -- -- -- 0 -- -- 65
2020-01-07 20:00:00 5.7 -- -- -- -- 0 -- -- 55
2020-01-07 19:00:00 7.2 -- -- -- -- 0 -- -- 47
2020-01-07 18:00:00 10.8 -- -- -- -- 0 -- -- 36
2020-01-07 17:00:00 14.2 -- -- -- -- 0 -- -- 29
2020-01-07 16:00:00 14.7 -- -- -- -- 0 -- -- 28
2020-01-07 15:00:00 13 -- -- 10 Oeste 0 -- -- 31
2020-01-07 14:00:00 12 -- -- 8 Sudoeste 0 -- -- 34
2020-01-07 13:00:00 10.3 -- -- -- -- 0 -- -- 39
2020-01-07 12:00:00 7.5 -- -- -- -- 0 -- -- 49
2020-01-07 11:00:00 3.9 -- -- -- -- 0 -- -- 79
2020-01-07 10:00:00 0.5 -- -- -- -- 0 -- -- 86
2020-01-07 09:00:00 -2.3 -- -- -- -- 0 -- -- 87
2020-01-07 08:00:00 -1.9 -- -- -- -- 0 -- -- 87
2020-01-07 07:00:00 -1.4 -- -- -- -- 0 -- -- 87
2020-01-07 06:00:00 -1.7 -- -- -- -- 0 -- -- 86
2020-01-07 05:00:00 -0.8 -- -- -- -- 0 -- -- 86
2020-01-07 04:00:00 -0.3 -- -- -- -- 0 -- -- 86
2020-01-07 03:00:00 -0.3 -- -- -- -- 0 -- -- 85
2020-01-07 02:00:00 0.1 -- -- -- -- 0 -- -- 84
2020-01-07 01:00:00 0.7 -- -- -- -- 0 -- -- 83
2020-01-07 00:00:00 1.7 -- -- -- -- 0 -- -- 82
2020-01-06 23:00:00 2.9 -- -- 8 Norte 0 -- -- 80
2020-01-06 22:00:00 3.8 -- -- -- -- 0 -- -- 77
2020-01-06 21:00:00 4.9 -- -- -- -- 0 -- -- 75
2020-01-06 20:00:00 5.5 -- -- -- -- 0 -- -- 68
2020-01-06 19:00:00 6.8 -- -- -- -- 0 -- -- 57
2020-01-06 18:00:00 9.8 -- -- -- -- 0 -- -- 41
2020-01-06 17:00:00 13.3 -- -- -- -- 0 -- -- 34
2020-01-06 16:00:00 13.1 -- -- 9 Sudoeste 0 -- -- 34
2020-01-06 15:00:00 13 -- -- 9 Sudoeste 0 -- -- 35
2020-01-06 14:00:00 12.2 -- -- 10 Sudoeste 0 -- -- 35
2020-01-06 13:00:00 10.1 -- -- -- -- 0 -- -- 38
2020-01-06 12:00:00 7.7 -- -- -- -- 0 -- -- 48
2020-01-06 11:00:00 3.9 -- -- -- -- 0 -- -- 79
2020-01-06 10:00:00 0.1 -- -- -- -- 0 -- -- 87